Time;durP1;ratioP1;P1;durP2;ratioP2;P2;SDS_P1;SDS_P2;PMS_P1;PMS_P2;Temp;Humidity;BMP_temperature;BMP_pressure;BME280_temperature;BME280_humidity;BME280_pressure;Samples;Min_cycle;Max_cycle;Signal;HPM_P1;HPM_P2
2022/08/18 00:02:11;;;;;;;8.32;5.53;;;17.90;99.90;;;;;;5021609;28;20057;-68
2022/08/18 00:04:39;;;;;;;9.93;6.20;;;17.90;99.90;;;;;;5023538;28;20042;-68
2022/08/18 00:07:08;;;;;;;17.58;6.40;;;17.90;99.90;;;;;;5021874;28;20122;-68
2022/08/18 00:09:38;;;;;;;9.38;5.47;;;17.90;99.90;;;;;;5018504;28;20133;-68
2022/08/18 00:12:14;;;;;;;7.80;5.93;;;17.80;99.90;;;;;;5015718;28;20124;-68
2022/08/18 00:14:39;;;;;;;12.02;6.03;;;17.90;99.90;;;;;;5017544;28;20082;-68
2022/08/18 00:17:07;;;;;;;9.70;6.25;;;17.80;99.90;;;;;;5018434;28;20497;-67
2022/08/18 00:19:32;;;;;;;8.02;5.72;;;17.90;99.90;;;;;;5019827;28;20046;-68
2022/08/18 00:21:58;;;;;;;9.57;6.05;;;17.90;99.90;;;;;;5021807;28;20049;-68
2022/08/18 00:24:24;;;;;;;9.68;6.03;;;17.90;99.90;;;;;;5017693;28;20454;-68
2022/08/18 00:26:50;;;;;;;9.18;5.90;;;17.90;99.90;;;;;;5020408;28;20050;-69
2022/08/18 00:29:15;;;;;;;9.18;5.97;;;17.90;99.90;;;;;;5022145;28;20048;-68
2022/08/18 00:31:41;;;;;;;11.00;5.93;;;17.80;99.90;;;;;;5022973;28;20049;-68
2022/08/18 00:34:07;;;;;;;13.68;5.72;;;17.80;99.90;;;;;;5024376;28;20112;-67
2022/08/18 00:36:33;;;;;;;12.65;6.78;;;17.90;99.90;;;;;;5022188;28;20088;-68
2022/08/18 00:39:00;;;;;;;6.50;5.10;;;17.90;99.90;;;;;;5020675;28;20050;-68
2022/08/18 00:41:26;;;;;;;9.27;5.03;;;17.90;99.90;;;;;;5025758;28;20044;-68
2022/08/18 00:43:54;;;;;;;6.20;4.85;;;17.80;99.90;;;;;;5021491;28;20061;-68
2022/08/18 00:46:40;;;;;;;9.65;5.22;;;17.90;99.90;;;;;;5024214;28;20042;-67
2022/08/18 00:49:06;;;;;;;8.50;5.47;;;17.90;99.90;;;;;;5018582;28;20200;-68
2022/08/18 00:51:44;;;;;;;9.32;5.25;;;17.80;99.90;;;;;;5024996;28;20498;-68
2022/08/18 00:54:29;;;;;;;9.27;5.40;;;17.80;99.90;;;;;;5023971;28;20042;-67
2022/08/18 00:56:59;;;;;;;9.25;5.13;;;17.80;99.90;;;;;;5016923;28;20232;-68
2022/08/18 00:59:30;;;;;;;9.93;5.97;;;17.80;99.90;;;;;;5018616;28;20038;-68
2022/08/18 01:02:01;;;;;;;9.60;5.20;;;17.90;99.90;;;;;;5018982;28;20056;-68
2022/08/18 01:04:39;;;;;;;6.80;4.82;;;17.90;99.90;;;;;;5020465;28;20050;-68
2022/08/18 01:07:41;;;;;;;8.70;4.95;;;17.90;99.90;;;;;;5023894;28;20052;-68
2022/08/18 01:10:07;;;;;;;8.25;4.82;;;17.80;99.90;;;;;;5021303;28;20114;-68
2022/08/18 01:12:33;;;;;;;9.45;5.50;;;17.90;99.90;;;;;;5023646;28;20124;-68
2022/08/18 01:14:59;;;;;;;9.20;5.45;;;17.90;99.90;;;;;;5024444;28;20037;-68
2022/08/18 01:23:10;;;;;;;6.68;4.65;;;17.90;99.90;;;;;;5019684;28;20104;-68
2022/08/18 01:28:22;;;;;;;9.02;5.10;;;17.90;99.90;;;;;;5019312;28;20081;-68
2022/08/18 01:30:54;;;;;;;8.80;5.57;;;17.90;99.90;;;;;;5020504;28;20524;-69
2022/08/18 01:33:20;;;;;;;9.10;5.40;;;17.90;99.90;;;;;;5017423;28;20129;-69
2022/08/18 01:35:48;;;;;;;9.00;5.70;;;17.90;99.90;;;;;;5025498;28;20124;-68
2022/08/18 01:38:19;;;;;;;7.30;4.90;;;17.90;99.90;;;;;;5019519;28;20046;-67
2022/08/18 01:40:49;;;;;;;7.47;4.90;;;17.80;99.90;;;;;;5016108;28;20050;-68
2022/08/18 01:43:15;;;;;;;6.95;5.22;;;18.10;99.90;;;;;;5013777;28;20096;-68
2022/08/18 01:45:41;;;;;;;8.80;5.22;;;17.90;99.90;;;;;;5022792;28;20049;-69
2022/08/18 01:48:07;;;;;;;7.90;5.13;;;17.90;99.90;;;;;;5020793;28;20033;-68
2022/08/18 01:50:34;;;;;;;7.45;5.18;;;17.90;99.90;;;;;;5023916;28;20041;-68
2022/08/18 01:53:00;;;;;;;7.15;4.75;;;17.90;99.90;;;;;;5020574;28;20037;-69
2022/08/18 01:55:27;;;;;;;5.65;4.45;;;18.00;99.90;;;;;;5021979;28;20054;-68
2022/08/18 01:57:53;;;;;;;7.97;4.65;;;17.90;99.90;;;;;;5018627;28;20050;-68
2022/08/18 02:00:19;;;;;;;7.38;5.03;;;18.00;99.90;;;;;;5023513;28;20049;-68
2022/08/18 02:02:45;;;;;;;8.65;5.32;;;18.00;99.90;;;;;;5019989;28;20386;-68
2022/08/18 02:05:18;;;;;;;6.97;4.93;;;18.00;99.90;;;;;;5024597;28;20049;-69
2022/08/18 02:07:47;;;;;;;6.30;5.10;;;18.00;99.90;;;;;;5017083;28;20037;-68
2022/08/18 02:10:13;;;;;;;7.80;4.75;;;18.00;99.90;;;;;;5017528;28;20049;-69
2022/08/18 02:12:40;;;;;;;8.30;4.82;;;18.00;99.90;;;;;;5013544;28;20050;-68
2022/08/18 02:15:10;;;;;;;8.43;5.22;;;18.00;99.90;;;;;;5023819;28;20484;-68
2022/08/18 02:17:40;;;;;;;6.80;4.78;;;18.10;99.90;;;;;;5020428;28;20489;-68
2022/08/18 02:20:08;;;;;;;8.35;5.20;;;18.10;99.90;;;;;;5023533;28;20042;-68
2022/08/18 02:22:34;;;;;;;10.88;5.70;;;18.10;99.90;;;;;;5021298;28;20507;-68
2022/08/18 02:24:59;;;;;;;7.85;4.78;;;18.20;99.90;;;;;;5022742;28;20053;-68
2022/08/18 02:27:26;;;;;;;7.75;4.85;;;18.10;99.90;;;;;;5016233;28;20050;-68
2022/08/18 02:29:52;;;;;;;9.10;5.25;;;18.10;99.90;;;;;;5020581;28;20045;-69
2022/08/18 02:32:18;;;;;;;7.03;5.05;;;18.00;99.90;;;;;;5022029;28;20053;-68
2022/08/18 02:34:44;;;;;;;7.90;4.50;;;18.00;99.90;;;;;;5023021;28;20095;-68
2022/08/18 02:37:10;;;;;;;12.05;5.00;;;18.00;99.90;;;;;;5019569;28;20057;-68
2022/08/18 02:39:37;;;;;;;7.80;4.55;;;17.90;99.90;;;;;;5022783;28;20056;-68
2022/08/18 02:42:04;;;;;;;8.90;4.80;;;17.90;99.90;;;;;;5019927;28;20044;-68
2022/08/18 02:44:30;;;;;;;9.38;4.80;;;17.90;99.90;;;;;;5023898;28;20103;-68
2022/08/18 02:46:57;;;;;;;11.85;5.68;;;18.00;99.90;;;;;;5019699;28;20072;-68
2022/08/18 02:49:22;;;;;;;9.15;4.80;;;17.90;99.90;;;;;;5024082;28;20033;-69
2022/08/18 02:51:50;;;;;;;8.23;4.53;;;18.00;99.90;;;;;;5024314;28;20477;-69
2022/08/18 02:54:17;;;;;;;8.00;4.93;;;18.00;99.90;;;;;;5021908;28;20493;-69
2022/08/18 02:56:44;;;;;;;9.18;4.78;;;18.00;99.90;;;;;;5018669;28;20050;-68
2022/08/18 02:59:13;;;;;;;7.88;4.90;;;18.00;99.90;;;;;;5023228;28;20091;-68
2022/08/18 03:01:42;;;;;;;8.32;4.93;;;18.00;99.90;;;;;;5020362;28;20406;-68
2022/08/18 03:04:10;;;;;;;6.60;4.88;;;18.00;99.90;;;;;;5023430;28;20099;-68
2022/08/18 03:06:38;;;;;;;10.07;4.53;;;18.10;99.90;;;;;;5018985;28;20049;-69
2022/08/18 03:09:05;;;;;;;7.93;4.90;;;18.10;99.90;;;;;;5023002;28;20041;-69
2022/08/18 03:11:31;;;;;;;11.18;5.03;;;18.10;99.90;;;;;;5011092;28;20042;-68
2022/08/18 03:13:57;;;;;;;8.00;4.28;;;18.00;99.90;;;;;;5020613;28;20041;-69
2022/08/18 03:16:26;;;;;;;9.80;4.32;;;18.10;99.90;;;;;;5020499;28;20045;-68
2022/08/18 03:18:52;;;;;;;7.45;4.28;;;18.10;99.90;;;;;;5022379;28;20060;-68
2022/08/18 03:21:24;;;;;;;8.85;4.75;;;18.10;99.90;;;;;;5020209;28;20045;-68
2022/08/18 03:23:52;;;;;;;8.45;4.13;;;18.10;99.90;;;;;;5019986;28;20383;-70
2022/08/18 03:26:19;;;;;;;7.50;4.40;;;18.20;99.90;;;;;;5017958;28;20657;-68
2022/08/18 03:28:48;;;;;;;7.50;4.32;;;18.20;99.90;;;;;;5020578;28;20120;-68
2022/08/18 03:31:18;;;;;;;7.07;4.43;;;18.20;99.90;;;;;;5020885;28;20129;-68
2022/08/18 03:33:45;;;;;;;7.82;4.45;;;18.10;99.90;;;;;;5021397;28;20160;-68
2022/08/18 03:36:17;;;;;;;8.43;4.40;;;18.20;99.90;;;;;;5020017;28;20042;-68
2022/08/18 03:38:44;;;;;;;6.88;4.75;;;18.20;99.90;;;;;;5019486;28;20037;-68
2022/08/18 03:41:12;;;;;;;6.90;4.25;;;18.20;99.90;;;;;;5019492;28;20426;-68
2022/08/18 03:43:38;;;;;;;8.27;4.32;;;18.20;99.90;;;;;;5021325;28;20041;-68
2022/08/18 03:46:08;;;;;;;6.28;4.30;;;18.20;99.90;;;;;;5021346;28;20045;-69
2022/08/18 03:48:35;;;;;;;9.88;4.47;;;18.20;99.90;;;;;;5020939;28;20053;-68
2022/08/18 03:51:06;;;;;;;5.68;4.20;;;18.20;99.90;;;;;;5017995;28;20048;-68
2022/08/18 03:53:38;;;;;;;6.13;4.18;;;18.20;99.90;;;;;;5021957;28;20172;-68
2022/08/18 03:56:16;;;;;;;5.97;3.90;;;18.20;99.90;;;;;;5020714;28;20088;-68
2022/08/18 03:58:44;;;;;;;6.63;4.05;;;18.30;99.90;;;;;;5020223;28;20042;-68
2022/08/18 04:01:15;;;;;;;9.55;4.35;;;18.30;99.90;;;;;;5019676;28;20053;-68
2022/08/18 04:03:46;;;;;;;7.38;4.40;;;18.30;99.90;;;;;;5024990;28;20048;-68
2022/08/18 04:06:21;;;;;;;6.78;4.28;;;18.30;99.90;;;;;;5018048;28;20050;-69
2022/08/18 04:08:49;;;;;;;9.77;4.32;;;18.30;99.90;;;;;;5025622;28;20489;-68
2022/08/18 04:11:18;;;;;;;7.10;3.95;;;18.30;99.90;;;;;;5024011;28;20041;-68
2022/08/18 04:13:44;;;;;;;8.32;4.20;;;18.30;99.90;;;;;;5025260;28;20473;-68
2022/08/18 04:16:10;;;;;;;9.98;4.38;;;18.30;99.90;;;;;;5024383;28;20142;-68
2022/08/18 04:18:39;;;;;;;6.72;4.20;;;18.30;99.90;;;;;;5025131;28;20048;-68
2022/08/18 04:21:08;;;;;;;6.32;4.20;;;18.30;99.90;;;;;;5021585;28;20362;-68
2022/08/18 04:23:36;;;;;;;7.65;3.95;;;18.30;99.90;;;;;;5024661;28;20409;-68
2022/08/18 04:26:03;;;;;;;6.97;4.10;;;18.30;99.90;;;;;;5024238;28;20060;-67
2022/08/18 04:28:29;;;;;;;7.03;4.60;;;18.40;99.90;;;;;;5023681;28;20042;-68
2022/08/18 04:30:58;;;;;;;6.50;4.20;;;18.30;99.90;;;;;;5022282;28;20050;-68
2022/08/18 04:33:28;;;;;;;7.35;4.85;;;18.30;99.90;;;;;;5024957;28;20049;-68
2022/08/18 04:35:54;;;;;;;8.00;4.53;;;18.30;99.90;;;;;;5022995;28;20494;-68
2022/08/18 04:38:21;;;;;;;8.02;4.10;;;18.30;99.90;;;;;;5025876;28;20053;-68
2022/08/18 04:40:47;;;;;;;7.68;3.70;;;18.30;99.90;;;;;;5021174;28;20052;-67
2022/08/18 04:43:16;;;;;;;7.35;3.65;;;18.20;99.90;;;;;;5024531;28;20139;-68
2022/08/18 04:45:43;;;;;;;7.60;3.10;;;18.20;99.90;;;;;;5022021;28;20060;-68
2022/08/18 04:48:09;;;;;;;5.70;2.70;;;18.30;99.90;;;;;;5024907;28;20430;-68
2022/08/18 04:50:37;;;;;;;6.25;3.28;;;18.30;99.90;;;;;;5020641;28;20552;-68
2022/08/18 04:55:53;;;;;;;6.47;2.97;;;18.20;99.90;;;;;;5019332;28;20050;-68
2022/08/18 04:58:20;;;;;;;7.18;3.20;;;18.20;99.90;;;;;;5025453;28;20501;-67
2022/08/18 05:00:54;;;;;;;10.68;3.58;;;18.20;99.90;;;;;;5021392;28;20489;-68
2022/08/18 05:03:20;;;;;;;5.95;3.00;;;18.30;99.90;;;;;;5022882;28;20489;-68
2022/08/18 05:05:46;;;;;;;9.88;3.50;;;18.20;99.90;;;;;;5022476;28;20048;-67
2022/08/18 05:08:12;;;;;;;7.43;3.40;;;18.30;99.90;;;;;;5023925;28;20046;-68
2022/08/18 05:10:40;;;;;;;8.13;4.45;;;18.30;99.90;;;;;;5021980;28;20104;-68
2022/08/18 05:13:05;;;;;;;5.50;2.80;;;18.30;99.90;;;;;;5023341;28;20049;-68
2022/08/18 05:15:32;;;;;;;7.32;3.33;;;18.30;99.90;;;;;;5020985;28;20374;-68
2022/08/18 05:17:57;;;;;;;8.18;3.38;;;18.30;99.90;;;;;;5024076;28;20049;-68
2022/08/18 05:20:24;;;;;;;7.18;3.28;;;18.30;99.90;;;;;;5023685;28;20049;-68
2022/08/18 05:22:49;;;;;;;7.43;3.05;;;18.30;99.90;;;;;;5023445;28;20106;-68
2022/08/18 05:25:16;;;;;;;5.75;3.17;;;18.30;99.90;;;;;;5022322;28;20128;-69
2022/08/18 05:27:42;;;;;;;6.75;3.08;;;18.30;99.90;;;;;;5022236;28;20038;-68
2022/08/18 05:30:10;;;;;;;6.03;2.78;;;18.30;99.90;;;;;;5024265;28;20467;-67
2022/08/18 05:32:41;;;;;;;6.43;2.60;;;18.30;99.90;;;;;;5016515;28;20049;-68
2022/08/18 05:35:49;;;;;;;6.68;2.47;;;18.30;99.90;;;;;;5014193;28;20049;-68
2022/08/18 05:38:47;;;;;;;7.25;2.63;;;18.30;99.90;;;;;;5021213;28;20175;-68
2022/08/18 05:41:25;;;;;;;5.25;2.90;;;18.30;99.90;;;;;;5018603;28;20058;-68
2022/08/18 05:43:51;;;;;;;6.78;2.92;;;18.30;99.90;;;;;;5022467;28;20040;-68
2022/08/18 05:46:17;;;;;;;8.23;3.20;;;18.30;99.90;;;;;;5023106;28;20041;-68
2022/08/18 05:48:44;;;;;;;4.97;2.83;;;18.30;99.90;;;;;;5021557;28;20048;-68
2022/08/18 05:51:16;;;;;;;9.93;3.42;;;18.30;99.90;;;;;;5019290;28;20044;-68
2022/08/18 05:56:45;;;;;;;5.72;2.45;;;18.30;99.90;;;;;;5037480;28;20049;-69
2022/08/18 05:59:33;;;;;;;4.32;2.30;;;18.30;99.90;;;;;;5018134;28;20034;-67
2022/08/18 06:02:14;;;;;;;5.45;2.50;;;18.30;99.90;;;;;;5019996;28;20486;-69
2022/08/18 06:04:57;;;;;;;7.00;2.65;;;18.40;99.90;;;;;;5018288;28;20038;-68
2022/08/18 06:07:45;;;;;;;6.80;2.85;;;18.30;99.90;;;;;;5020785;28;20045;-68
2022/08/18 06:10:12;;;;;;;6.00;2.50;;;18.30;99.90;;;;;;5019075;28;20453;-67
2022/08/18 06:13:09;;;;;;;6.70;2.40;;;18.30;99.90;;;;;;5022272;28;20040;-68
2022/08/18 06:16:00;;;;;;;4.75;2.20;;;18.30;99.90;;;;;;5013077;28;20440;-67
2022/08/18 06:18:46;;;;;;;7.10;2.65;;;18.30;99.90;;;;;;5021152;28;20034;-68
2022/08/18 06:21:33;;;;;;;4.20;2.10;;;18.40;99.90;;;;;;5018059;28;20042;-67
2022/08/18 06:24:28;;;;;;;4.45;2.05;;;18.40;99.90;;;;;;5015642;28;20131;-68
2022/08/18 06:27:04;;;;;;;5.03;2.42;;;18.40;99.90;;;;;;5022227;28;20044;-68
2022/08/18 06:30:04;;;;;;;6.30;2.53;;;18.40;99.90;;;;;;5017811;28;20056;-68
2022/08/18 06:32:44;;;;;;;6.93;2.55;;;18.40;99.90;;;;;;5019376;28;20049;-68
2022/08/18 06:35:35;;;;;;;6.70;2.20;;;18.40;99.90;;;;;;5021203;28;20505;-67
2022/08/18 06:38:39;;;;;;;4.25;2.35;;;18.40;99.90;;;;;;5019457;28;20042;-68
2022/08/18 06:41:22;;;;;;;6.60;2.80;;;18.50;99.90;;;;;;5017186;28;20042;-67
2022/08/18 06:44:16;;;;;;;5.43;2.72;;;18.40;99.90;;;;;;5015176;28;20285;-68
2022/08/18 06:46:46;;;;;;;7.57;2.85;;;18.40;99.90;;;;;;5022185;28;20091;-68
2022/08/18 06:49:30;;;;;;;5.75;2.97;;;18.40;99.90;;;;;;5022137;28;20402;-67
2022/08/18 06:51:56;;;;;;;4.43;2.38;;;18.40;99.90;;;;;;5012209;28;20038;-68
2022/08/18 06:54:25;;;;;;;5.40;2.40;;;18.50;99.90;;;;;;5021660;28;20045;-68
2022/08/18 06:56:53;;;;;;;6.50;2.50;;;18.60;99.90;;;;;;5018913;28;20050;-68
2022/08/18 06:59:20;;;;;;;4.93;2.28;;;18.70;99.90;;;;;;5023333;28;20490;-68
2022/08/18 07:01:50;;;;;;;3.78;2.20;;;18.70;99.90;;;;;;5018772;28;20406;-68
2022/08/18 07:04:57;;;;;;;7.35;2.60;;;18.90;99.90;;;;;;5023279;28;20034;-67
2022/08/18 07:07:38;;;;;;;5.78;2.63;;;19.00;99.90;;;;;;5019711;28;20122;-67
2022/08/18 07:10:30;;;;;;;5.78;2.40;;;19.10;99.90;;;;;;5019128;28;20471;-67
2022/08/18 07:13:13;;;;;;;6.35;3.10;;;19.30;99.90;;;;;;5017120;28;20043;-68
2022/08/18 07:15:40;;;;;;;7.35;2.47;;;19.30;99.90;;;;;;5019283;28;20045;-68
2022/08/18 07:18:07;;;;;;;5.35;2.38;;;19.40;99.90;;;;;;5019993;28;20088;-68
2022/08/18 07:21:00;;;;;;;4.50;2.20;;;19.40;99.90;;;;;;5022071;28;20607;-68
2022/08/18 07:23:32;;;;;;;6.07;2.20;;;19.50;99.90;;;;;;5015695;28;20053;-67
2022/08/18 07:26:11;;;;;;;6.57;2.50;;;19.70;99.90;;;;;;5022085;28;20042;-68
2022/08/18 07:28:48;;;;;;;6.95;2.10;;;19.90;99.90;;;;;;5022763;28;20124;-67
2022/08/18 07:31:36;;;;;;;4.60;2.15;;;20.50;99.90;;;;;;5019035;28;20042;-68
2022/08/18 07:34:26;;;;;;;5.55;2.30;;;21.00;99.90;;;;;;5016683;28;20099;-68
2022/08/18 07:37:00;;;;;;;4.97;2.30;;;21.30;99.90;;;;;;5017893;28;20037;-68
2022/08/18 07:39:31;;;;;;;6.03;3.08;;;21.20;99.90;;;;;;5026318;28;20573;-68
2022/08/18 07:42:09;;;;;;;5.10;2.42;;;21.30;99.90;;;;;;5024435;28;20540;-69
2022/08/18 07:44:58;;;;;;;5.60;2.58;;;21.60;99.90;;;;;;5024427;28;20136;-70
2022/08/18 07:47:41;;;;;;;6.45;2.63;;;21.90;99.90;;;;;;5022325;28;20474;-69
2022/08/18 07:50:07;;;;;;;7.47;2.55;;;22.20;99.90;;;;;;5023336;28;21056;-70
2022/08/18 07:53:13;;;;;;;4.07;1.85;;;22.90;99.90;;;;;;5023764;28;20060;-69
2022/08/18 07:55:42;;;;;;;6.22;1.90;;;23.20;99.90;;;;;;5026480;28;20037;-69
2022/08/18 07:58:30;;;;;;;5.38;1.88;;;23.10;99.90;;;;;;5023144;28;20176;-69
2022/08/18 08:01:28;;;;;;;4.80;1.80;;;22.90;99.90;;;;;;5021319;28;20065;-69
2022/08/18 08:04:22;;;;;;;5.18;1.60;;;22.80;99.90;;;;;;5017020;28;20054;-69
2022/08/18 08:07:12;;;;;;;3.60;1.63;;;23.20;99.90;;;;;;5019564;28;20042;-69
2022/08/18 08:09:56;;;;;;;5.15;1.60;;;24.50;99.90;;;;;;5019611;28;20502;-70
2022/08/18 08:12:37;;;;;;;4.30;1.55;;;25.00;99.90;;;;;;5021565;28;20490;-70
2022/08/18 08:15:12;;;;;;;3.92;1.27;;;25.20;99.90;;;;;;5022178;28;20041;-69
2022/08/18 08:18:14;;;;;;;3.67;1.10;;;25.50;99.90;;;;;;5024734;28;20049;-69
2022/08/18 08:20:56;;;;;;;2.90;1.30;;;25.00;99.90;;;;;;5023549;28;20040;-69
2022/08/18 08:23:32;;;;;;;3.22;1.10;;;25.40;99.90;;;;;;5021162;28;20493;-70
2022/08/18 08:26:23;;;;;;;2.03;1.00;;;25.70;99.90;;;;;;5020255;28;20061;-69
2022/08/18 08:28:57;;;;;;;3.20;1.30;;;25.40;99.90;;;;;;5020677;28;20129;-70
2022/08/18 08:31:36;;;;;;;3.40;1.20;;;25.20;99.90;;;;;;5025509;28;20061;-70
2022/08/18 08:34:36;;;;;;;2.70;1.20;;;25.30;99.90;;;;;;5021163;28;20378;-70
2022/08/18 08:37:05;;;;;;;2.92;1.20;;;25.00;99.90;;;;;;5024261;28;20042;-70
2022/08/18 08:39:44;;;;;;;3.20;1.30;;;24.50;99.90;;;;;;5021491;28;20048;-70
2022/08/18 08:42:37;;;;;;;3.22;1.20;;;24.20;99.90;;;;;;5021330;28;20686;-70
2022/08/18 08:45:15;;;;;;;3.25;1.13;;;24.10;99.90;;;;;;5021586;28;20057;-69
2022/08/18 08:48:13;;;;;;;3.88;1.40;;;24.40;99.90;;;;;;5019144;28;20124;-69
2022/08/18 08:50:54;;;;;;;4.45;1.50;;;25.30;99.90;;;;;;5020986;28;20203;-69
2022/08/18 08:53:38;;;;;;;3.28;1.40;;;25.60;99.90;;;;;;5024544;28;20095;-70
2022/08/18 08:56:09;;;;;;;2.85;1.20;;;25.50;99.90;;;;;;5018559;28;20091;-70
2022/08/18 08:58:53;;;;;;;3.80;1.45;;;25.00;99.90;;;;;;5018757;28;20118;-70
2022/08/18 09:01:31;;;;;;;3.05;1.40;;;24.60;99.90;;;;;;5022100;28;20077;-69
2022/08/18 09:04:15;;;;;;;3.08;1.38;;;24.40;99.90;;;;;;5021528;28;20060;-70
2022/08/18 09:07:21;;;;;;;3.05;1.10;;;24.20;99.90;;;;;;5019208;28;20045;-69
2022/08/18 09:10:09;;;;;;;3.53;1.25;;;24.50;99.90;;;;;;5019710;28;20089;-70
2022/08/18 09:12:52;;;;;;;3.08;1.30;;;25.70;99.90;;;;;;5019707;28;20049;-69
2022/08/18 09:15:42;;;;;;;4.68;1.50;;;26.50;99.90;;;;;;5022857;28;20489;-70
2022/08/18 09:18:21;;;;;;;5.07;1.77;;;26.60;99.90;;;;;;5016313;28;20084;-70
2022/08/18 09:20:58;;;;;;;3.00;1.40;;;26.90;99.90;;;;;;5022150;28;20046;-70
2022/08/18 09:23:31;;;;;;;4.47;1.30;;;26.60;99.90;;;;;;5023298;28;20064;-70
2022/08/18 09:25:59;;;;;;;2.83;1.30;;;26.40;99.90;;;;;;5022434;28;20042;-70
2022/08/18 09:28:28;;;;;;;2.65;1.20;;;26.10;99.90;;;;;;5025334;28;20041;-70
2022/08/18 09:31:05;;;;;;;3.50;1.30;;;25.90;99.90;;;;;;5020000;28;20056;-69
2022/08/18 09:33:44;;;;;;;2.65;1.30;;;25.70;99.90;;;;;;5014397;28;20048;-69
2022/08/18 09:36:19;;;;;;;3.17;1.23;;;25.30;99.90;;;;;;5023094;28;20087;-69
2022/08/18 09:42:13;;;;;;;4.50;1.50;;;24.60;99.90;;;;;;5018540;28;20045;-71
2022/08/18 09:44:45;;;;;;;3.20;1.27;;;24.80;99.90;;;;;;5021643;28;20476;-69
2022/08/18 09:47:32;;;;;;;4.50;1.30;;;25.10;99.90;;;;;;5021832;28;20048;-69
2022/08/18 09:50:04;;;;;;;3.63;1.30;;;25.10;99.90;;;;;;5019538;28;20454;-69
2022/08/18 09:52:32;;;;;;;3.20;1.10;;;25.20;99.90;;;;;;5023072;28;20077;-69
2022/08/18 09:54:58;;;;;;;4.35;1.38;;;25.50;99.90;;;;;;5020156;28;20497;-69
2022/08/18 09:57:29;;;;;;;3.55;1.60;;;26.20;99.90;;;;;;5022887;28;20049;-70
2022/08/18 10:00:16;;;;;;;6.57;1.55;;;27.20;99.90;;;;;;5015537;28;20042;-69
2022/08/18 10:02:41;;;;;;;3.33;1.25;;;27.60;99.50;;;;;;5020659;28;20450;-69
2022/08/18 10:05:17;;;;;;;4.20;1.92;;;27.30;99.00;;;;;;5020959;28;20136;-69
2022/08/18 10:07:53;;;;;;;3.42;1.30;;;27.50;99.90;;;;;;5020833;28;20050;-69
2022/08/18 10:10:27;;;;;;;6.60;1.60;;;27.70;99.20;;;;;;5023406;28;20469;-69
2022/08/18 10:13:05;;;;;;;4.55;1.48;;;27.70;99.40;;;;;;5015320;28;20060;-69
2022/08/18 10:15:48;;;;;;;4.20;1.10;;;27.80;98.20;;;;;;5019672;28;20475;-69
2022/08/18 10:18:35;;;;;;;1.95;1.08;;;28.40;98.00;;;;;;5018965;28;20126;-69
2022/08/18 10:21:17;;;;;;;3.10;1.20;;;28.80;97.90;;;;;;5141421;27;1233667;-68
2022/08/18 10:23:57;;;;;;;3.30;1.40;;;28.40;97.30;;;;;;5141442;27;20159;-69
2022/08/18 10:26:29;;;;;;;3.15;1.38;;;28.10;97.40;;;;;;5137177;27;20091;-68
2022/08/18 10:29:27;;;;;;;2.58;1.23;;;28.50;98.80;;;;;;5162150;27;20074;-68
2022/08/18 10:31:56;;;;;;;3.65;1.45;;;28.60;98.00;;;;;;5154232;27;20046;-68
2022/08/18 10:34:40;;;;;;;3.40;1.35;;;28.40;96.30;;;;;;5144320;27;20045;-68
2022/08/18 10:37:38;;;;;;;2.70;1.23;;;28.60;96.20;;;;;;5160326;27;20052;-68
2022/08/18 10:40:13;;;;;;;2.00;1.13;;;28.60;95.60;;;;;;5140061;27;20051;-68
2022/08/18 10:42:48;;;;;;;2.30;1.13;;;28.50;96.40;;;;;;5159726;27;20096;-71
2022/08/18 10:45:19;;;;;;;5.07;1.20;;;28.70;96.00;;;;;;5154891;27;20087;-69
2022/08/18 10:48:04;;;;;;;4.10;1.17;;;28.80;96.50;;;;;;5152612;27;20551;-69
2022/08/18 10:51:07;;;;;;;2.47;1.20;;;28.30;95.80;;;;;;5159256;27;20126;-69
2022/08/18 10:53:34;;;;;;;2.63;1.25;;;27.60;95.40;;;;;;5136804;27;20103;-69
2022/08/18 10:56:07;;;;;;;2.78;1.20;;;27.90;97.20;;;;;;5141899;27;20049;-70
2022/08/18 10:58:45;;;;;;;2.10;1.00;;;28.10;96.70;;;;;;5161386;27;20074;-70
2022/08/18 11:01:22;;;;;;;1.58;0.90;;;27.90;95.30;;;;;;5158128;27;20074;-70
2022/08/18 11:03:53;;;;;;;2.92;0.98;;;27.40;95.90;;;;;;5140289;27;20500;-70
2022/08/18 11:06:25;;;;;;;2.97;1.10;;;27.00;96.40;;;;;;5157851;27;20375;-70
2022/08/18 11:08:58;;;;;;;2.53;1.20;;;26.80;97.50;;;;;;5141820;27;20048;-69
2022/08/18 11:11:31;;;;;;;2.45;1.13;;;27.00;97.60;;;;;;5141687;27;20137;-69
2022/08/18 11:14:18;;;;;;;1.90;1.00;;;27.70;98.00;;;;;;5159747;27;20406;-69
2022/08/18 11:16:53;;;;;;;2.10;1.08;;;28.70;96.70;;;;;;5155500;27;20051;-69
2022/08/18 11:19:21;;;;;;;3.38;1.00;;;29.50;96.10;;;;;;5161276;27;20061;-69
2022/08/18 11:21:50;;;;;;;2.47;1.05;;;30.00;96.20;;;;;;5140002;27;20046;-69
2022/08/18 11:24:26;;;;;;;3.22;1.23;;;30.00;95.10;;;;;;5142841;27;20050;-69
2022/08/18 11:27:05;;;;;;;2.25;1.05;;;29.40;93.80;;;;;;5160151;27;20053;-69
2022/08/18 11:29:40;;;;;;;3.08;1.10;;;28.60;93.60;;;;;;5139484;27;20130;-68
2022/08/18 11:32:19;;;;;;;2.35;1.20;;;28.10;94.90;;;;;;5123335;27;20039;-69
2022/08/18 11:34:58;;;;;;;2.60;1.20;;;27.50;95.80;;;;;;5123691;27;20126;-69
2022/08/18 11:37:44;;;;;;;2.92;1.30;;;27.10;95.90;;;;;;5150022;27;20096;-69
2022/08/18 11:40:22;;;;;;;2.05;1.10;;;26.90;96.60;;;;;;5126242;27;20512;-69
2022/08/18 11:43:08;;;;;;;2.28;1.30;;;27.00;96.30;;;;;;5147389;27;20046;-68
2022/08/18 11:45:46;;;;;;;;;;;26.70;96.10;;;;;;5122567;27;20390;-69
2022/08/18 11:48:23;;;;;;;3.17;1.25;;;26.50;97.60;;;;;;5137220;27;19919;-69
2022/08/18 11:51:00;;;;;;;3.33;1.15;;;26.50;97.10;;;;;;5144276;27;20035;-68
2022/08/18 11:53:42;;;;;;;2.03;1.10;;;26.50;97.00;;;;;;5126524;27;20061;-69
2022/08/18 11:56:19;;;;;;;3.10;1.55;;;26.50;97.00;;;;;;5140665;27;20107;-68
2022/08/18 11:59:04;;;;;;;3.58;2.10;;;26.40;96.70;;;;;;5146306;27;20081;-69
2022/08/18 12:01:38;;;;;;;3.85;1.60;;;26.50;96.60;;;;;;5147521;27;20038;-69
2022/08/18 12:04:12;;;;;;;2.97;1.50;;;26.40;97.10;;;;;;5127095;27;20410;-69
2022/08/18 12:06:44;;;;;;;3.78;1.25;;;26.40;96.80;;;;;;5122949;27;20398;-69
2022/08/18 12:09:15;;;;;;;2.20;1.33;;;26.40;97.60;;;;;;5146009;27;20490;-69
2022/08/18 12:11:55;;;;;;;1.83;1.10;;;26.20;97.00;;;;;;5125893;27;20133;-69
2022/08/18 12:14:23;;;;;;;2.88;1.55;;;26.20;96.60;;;;;;5144679;27;20038;-69
2022/08/18 12:16:49;;;;;;;4.63;1.50;;;26.20;97.50;;;;;;5127555;27;20087;-69
2022/08/18 12:19:15;;;;;;;2.83;1.20;;;26.20;97.00;;;;;;5124470;27;20072;-69
2022/08/18 12:21:55;;;;;;;2.53;1.27;;;26.10;96.40;;;;;;5146303;27;20436;-69
2022/08/18 12:24:26;;;;;;;2.83;1.27;;;26.00;96.90;;;;;;5145554;27;20043;-69
2022/08/18 12:26:53;;;;;;;4.03;1.35;;;26.10;97.20;;;;;;5143934;27;20571;-69
2022/08/18 12:29:19;;;;;;;2.58;1.38;;;26.00;96.80;;;;;;5127659;27;20550;-69
2022/08/18 12:31:47;;;;;;;2.13;1.15;;;25.90;97.00;;;;;;5125988;27;20042;-69
2022/08/18 12:34:12;;;;;;;3.03;1.50;;;26.00;97.20;;;;;;5128036;27;20065;-69
2022/08/18 12:36:40;;;;;;;3.13;1.17;;;26.30;97.10;;;;;;5126309;27;20043;-69
2022/08/18 12:39:06;;;;;;;3.08;1.38;;;27.10;96.40;;;;;;5144298;27;20045;-69
2022/08/18 12:41:31;;;;;;;2.72;1.40;;;27.90;96.40;;;;;;5146360;27;20034;-69
2022/08/18 12:43:57;;;;;;;2.40;1.30;;;28.20;95.50;;;;;;5123353;27;20095;-69
2022/08/18 12:46:23;;;;;;;2.40;1.55;;;28.10;94.90;;;;;;5127361;27;20045;-69
2022/08/18 12:48:49;;;;;;;3.70;1.33;;;27.90;94.40;;;;;;5124235;27;20091;-69
2022/08/18 12:51:15;;;;;;;4.65;1.58;;;28.20;95.40;;;;;;5145106;27;20398;-69
2022/08/18 12:53:41;;;;;;;2.58;1.50;;;28.50;95.70;;;;;;5143656;27;20035;-69
2022/08/18 12:56:16;;;;;;;3.28;1.23;;;28.40;95.00;;;;;;5143592;27;20027;-69
2022/08/18 12:58:42;;;;;;;3.22;1.40;;;28.40;94.10;;;;;;5126019;27;20146;-69
2022/08/18 13:01:07;;;;;;;3.72;1.67;;;28.20;94.60;;;;;;5138291;27;20043;-69
2022/08/18 13:03:33;;;;;;;4.15;1.60;;;27.90;94.80;;;;;;5126414;27;20042;-69
2022/08/18 13:05:59;;;;;;;3.00;1.33;;;27.60;94.30;;;;;;5142630;27;20039;-69
2022/08/18 13:08:24;;;;;;;3.72;1.30;;;27.90;94.50;;;;;;5142846;27;20133;-69
2022/08/18 13:10:50;;;;;;;2.38;1.35;;;28.00;94.30;;;;;;5143247;27;20049;-69
2022/08/18 13:13:18;;;;;;;3.58;1.70;;;28.10;93.70;;;;;;5123200;27;20042;-69
2022/08/18 13:15:45;;;;;;;3.50;1.58;;;28.30;93.90;;;;;;5144643;27;20050;-69
2022/08/18 13:18:13;;;;;;;2.42;1.35;;;28.00;93.90;;;;;;5143125;27;20046;-69
2022/08/18 13:20:40;;;;;;;3.50;1.55;;;27.60;94.10;;;;;;5124881;27;20062;-69
2022/08/18 13:23:06;;;;;;;3.13;1.50;;;27.40;94.10;;;;;;5143148;27;20094;-69
2022/08/18 13:25:32;;;;;;;2.50;1.35;;;27.00;94.20;;;;;;5143906;27;20126;-69
2022/08/18 13:27:58;;;;;;;4.63;1.42;;;26.80;94.50;;;;;;5138934;27;20465;-69
2022/08/18 13:30:23;;;;;;;3.15;1.55;;;26.60;94.60;;;;;;5142445;27;20084;-69
2022/08/18 13:32:50;;;;;;;3.65;1.65;;;26.30;94.80;;;;;;5145710;27;20030;-69
2022/08/18 13:35:16;;;;;;;3.28;1.40;;;26.30;95.50;;;;;;5119190;27;20123;-69
2022/08/18 13:37:41;;;;;;;2.63;1.30;;;26.30;95.70;;;;;;5145158;27;20062;-69